createdAt,value
2024-04-08T00:01:49.331Z,12.20
2024-04-08T00:04:00.768Z,11.70
2024-04-08T00:06:12.482Z,11.70
2024-04-08T00:08:25.216Z,11.70
2024-04-08T00:10:37.417Z,13.10
2024-04-08T00:12:49.054Z,12.50
2024-04-08T00:15:00.640Z,13.70
2024-04-08T00:17:12.742Z,14.40
2024-04-08T00:19:24.115Z,11.80
2024-04-08T00:21:35.700Z,12.90
2024-04-08T00:23:49.137Z,13.40
2024-04-08T00:26:05.369Z,11.90
2024-04-08T00:28:17.009Z,12.40
2024-04-08T00:30:28.497Z,13.40
2024-04-08T00:32:40.255Z,16.50
2024-04-08T00:34:52.277Z,15.90
2024-04-08T00:37:03.965Z,14.00
2024-04-08T00:39:15.877Z,13.60
2024-04-08T00:41:28.086Z,12.90
2024-04-08T00:43:39.846Z,14.20
2024-04-08T00:45:51.841Z,14.50
2024-04-08T00:48:04.971Z,12.90
2024-04-08T00:50:16.957Z,12.30
2024-04-08T00:52:28.440Z,12.00
2024-04-08T00:54:41.061Z,13.80
2024-04-08T00:56:56.116Z,16.00
2024-04-08T00:59:08.316Z,14.40
2024-04-08T01:01:19.966Z,15.50
2024-04-08T01:03:31.837Z,12.00
2024-04-08T01:05:48.845Z,11.80
2024-04-08T01:08:01.232Z,11.40
2024-04-08T01:10:13.003Z,11.40
2024-04-08T01:12:26.785Z,11.40
2024-04-08T01:14:40.136Z,11.60
2024-04-08T01:16:51.750Z,10.80
2024-04-08T01:19:03.139Z,11.40
2024-04-08T01:21:15.022Z,11.80
2024-04-08T01:23:29.302Z,11.40
2024-04-08T01:25:40.648Z,11.30
2024-04-08T01:27:52.336Z,12.40
2024-04-08T01:30:04.228Z,12.30
2024-04-08T01:32:15.816Z,13.10
2024-04-08T01:34:27.443Z,15.10
2024-04-08T01:36:39.702Z,14.00
2024-04-08T01:38:51.082Z,12.50
2024-04-08T01:41:02.667Z,13.20
2024-04-08T01:43:14.150Z,12.60
2024-04-08T01:45:25.941Z,12.60
2024-04-08T01:47:37.691Z,13.00
2024-04-08T01:49:49.522Z,13.60
2024-04-08T01:52:01.016Z,14.10
2024-04-08T01:54:13.607Z,16.20
2024-04-08T01:56:25.095Z,16.30
2024-04-08T01:58:36.603Z,19.90
2024-04-08T02:00:47.997Z,18.20
2024-04-08T02:02:59.440Z,16.00
2024-04-08T02:05:11.232Z,15.70
2024-04-08T02:07:22.818Z,15.30
2024-04-08T02:09:34.395Z,15.20
2024-04-08T02:11:46.117Z,14.60
2024-04-08T02:13:57.781Z,15.20
2024-04-08T02:16:10.079Z,15.80
2024-04-08T02:18:21.353Z,16.20
2024-04-08T02:20:37.589Z,15.70
2024-04-08T02:22:49.152Z,16.20
2024-04-08T02:25:00.782Z,15.90
2024-04-08T02:27:12.202Z,15.00
2024-04-08T02:29:23.887Z,14.10
2024-04-08T02:31:35.577Z,14.10
2024-04-08T02:33:47.273Z,12.70
2024-04-08T02:36:05.586Z,12.40
2024-04-08T02:38:17.395Z,12.80
2024-04-08T02:40:29.203Z,12.50
2024-04-08T02:42:43.894Z,12.60
2024-04-08T02:44:56.043Z,14.00
2024-04-08T02:47:07.731Z,12.80
2024-04-08T02:49:19.104Z,13.80
2024-04-08T02:51:30.391Z,14.80
2024-04-08T02:53:42.008Z,15.20
2024-04-08T02:56:02.991Z,14.90
2024-04-08T02:58:15.490Z,14.10
2024-04-08T03:00:27.013Z,14.60
2024-04-08T03:02:38.912Z,14.50
2024-04-08T03:04:52.597Z,13.50
2024-04-08T03:07:04.291Z,13.20
2024-04-08T03:09:15.899Z,15.20
2024-04-08T03:11:27.827Z,15.00
2024-04-08T03:13:40.993Z,15.10
2024-04-08T03:15:56.296Z,15.50
2024-04-08T03:18:11.022Z,14.70
2024-04-08T03:20:22.298Z,14.70
2024-04-08T03:22:34.435Z,14.50
2024-04-08T03:24:46.182Z,13.60
2024-04-08T03:26:57.767Z,14.70
2024-04-08T03:29:09.456Z,12.50
2024-04-08T03:31:20.645Z,14.40
2024-04-08T03:33:32.832Z,14.20
2024-04-08T03:35:44.888Z,14.10
2024-04-08T03:37:56.819Z,13.60
2024-04-08T03:40:30.079Z,14.30
2024-04-08T03:43:11.598Z,14.50
2024-04-08T03:45:23.498Z,15.30
2024-04-08T03:47:35.728Z,14.10
2024-04-08T03:49:47.798Z,13.80
2024-04-08T03:51:59.168Z,13.80
2024-04-08T03:54:10.669Z,12.80
2024-04-08T03:56:22.789Z,13.60
2024-04-08T03:58:41.030Z,13.20
2024-04-08T04:00:54.693Z,13.60
2024-04-08T04:03:08.920Z,13.70
2024-04-08T04:05:22.299Z,14.60
2024-04-08T04:07:33.985Z,14.40
2024-04-08T04:09:45.572Z,13.60
2024-04-08T04:11:57.264Z,14.60
2024-04-08T04:14:08.851Z,15.80
2024-04-08T04:16:20.325Z,16.40
2024-04-08T04:18:32.220Z,16.70
2024-04-08T04:20:47.083Z,17.50
2024-04-08T04:22:58.562Z,20.40
2024-04-08T04:25:10.152Z,22.70
2024-04-08T04:27:21.731Z,30.50
2024-04-08T04:29:33.562Z,32.80
2024-04-08T04:31:48.227Z,24.50
2024-04-08T04:34:00.337Z,20.90
2024-04-08T04:36:13.672Z,18.60
2024-04-08T04:38:27.450Z,15.70
2024-04-08T04:40:39.027Z,15.30
2024-04-08T04:42:51.224Z,15.20
2024-04-08T04:45:02.914Z,14.20
2024-04-08T04:47:14.513Z,16.10
2024-04-08T04:49:26.287Z,16.00
2024-04-08T04:51:37.670Z,15.90
2024-04-08T04:53:49.191Z,16.80
2024-04-08T04:56:00.741Z,16.70
2024-04-08T04:58:12.325Z,16.80
2024-04-08T05:00:27.084Z,18.10
2024-04-08T05:02:38.989Z,18.00
2024-04-08T05:04:50.665Z,19.30
2024-04-08T05:07:02.260Z,19.30
2024-04-08T05:09:14.467Z,20.30
2024-04-08T05:11:25.947Z,19.50
2024-04-08T05:13:37.414Z,18.80
2024-04-08T05:16:02.826Z,19.20
2024-04-08T05:18:14.311Z,18.60
2024-04-08T05:20:27.321Z,19.90
2024-04-08T05:22:45.507Z,19.20
2024-04-08T05:24:56.945Z,19.80
2024-04-08T05:27:08.471Z,18.80
2024-04-08T05:29:24.218Z,18.70
2024-04-08T05:31:35.694Z,19.50
2024-04-08T05:33:47.488Z,19.70
2024-04-08T05:35:59.355Z,19.30
2024-04-08T05:38:16.805Z,20.20
2024-04-08T05:40:28.129Z,20.20
2024-04-08T05:42:39.561Z,21.30
2024-04-08T05:44:50.874Z,20.20
2024-04-08T05:47:02.630Z,20.40
2024-04-08T05:49:14.260Z,19.50
2024-04-08T05:51:28.871Z,21.30
2024-04-08T05:53:40.556Z,20.70
2024-04-08T05:55:52.248Z,20.30
2024-04-08T05:58:05.059Z,20.60
2024-04-08T06:00:22.384Z,21.10
2024-04-08T06:02:34.683Z,21.20
2024-04-08T06:04:48.532Z,20.90
2024-04-08T06:07:02.068Z,20.70
2024-04-08T06:09:14.089Z,22.00
2024-04-08T06:11:25.261Z,20.90
2024-04-08T06:13:36.817Z,21.90
2024-04-08T06:15:48.292Z,21.90
2024-04-08T06:18:00.006Z,22.60
2024-04-08T06:20:11.868Z,22.90
2024-04-08T06:22:23.562Z,22.30
2024-04-08T06:24:35.464Z,23.00
2024-04-08T06:26:46.971Z,21.40
2024-04-08T06:28:58.719Z,22.00
2024-04-08T06:31:10.306Z,21.10
2024-04-08T06:33:22.125Z,20.60
2024-04-08T06:35:33.989Z,21.80
2024-04-08T06:37:45.503Z,22.00
2024-04-08T06:39:57.159Z,21.80
2024-04-08T06:42:17.659Z,21.90
2024-04-08T06:44:28.931Z,22.00
2024-04-08T06:46:40.316Z,22.80
2024-04-08T06:48:52.100Z,21.60
2024-04-08T06:51:04.208Z,21.60
2024-04-08T06:53:15.792Z,22.40
2024-04-08T06:55:27.381Z,21.40
2024-04-08T06:57:39.056Z,21.90
2024-04-08T06:59:50.782Z,24.00
2024-04-08T07:02:04.434Z,22.70
2024-04-08T07:04:18.471Z,23.90
2024-04-08T07:06:29.635Z,22.40
2024-04-08T07:08:41.306Z,22.60
2024-04-08T07:10:52.731Z,21.30
2024-04-08T07:13:04.960Z,22.80
2024-04-08T07:15:16.762Z,24.10
2024-04-08T07:17:28.186Z,23.00
2024-04-08T07:19:41.053Z,23.10
2024-04-08T07:21:54.786Z,23.40
2024-04-08T07:24:08.770Z,22.70
2024-04-08T07:26:20.523Z,24.20
2024-04-08T07:28:31.807Z,23.90
2024-04-08T07:30:43.591Z,24.60
2024-04-08T07:32:56.716Z,23.80
2024-04-08T07:35:08.906Z,24.30
2024-04-08T07:37:20.592Z,24.90
2024-04-08T07:39:36.356Z,24.00
2024-04-08T07:41:49.402Z,25.10
2024-04-08T07:44:01.195Z,24.40
2024-04-08T07:46:12.669Z,24.20
2024-04-08T07:48:24.252Z,24.80
2024-04-08T07:50:39.037Z,23.60
2024-04-08T07:52:50.597Z,23.00
2024-04-08T07:55:02.282Z,23.40
2024-04-08T07:57:13.673Z,24.00
2024-04-08T07:59:25.354Z,25.50
2024-04-08T08:01:36.940Z,24.30
2024-04-08T08:03:49.140Z,22.40
2024-04-08T08:06:01.354Z,22.20
2024-04-08T08:08:14.046Z,23.30
2024-04-08T08:10:25.740Z,22.50
2024-04-08T08:12:37.421Z,23.70
2024-04-08T08:14:48.848Z,23.10
2024-04-08T08:17:00.393Z,22.70
2024-04-08T08:19:11.942Z,23.50
2024-04-08T08:21:23.358Z,21.90
2024-04-08T08:23:35.149Z,23.40
2024-04-08T08:25:48.267Z,22.00
2024-04-08T08:27:59.851Z,23.50
2024-04-08T08:30:11.575Z,23.30
2024-04-08T08:32:23.026Z,22.80
2024-04-08T08:34:34.710Z,23.30
2024-04-08T08:36:47.526Z,23.20
2024-04-08T08:38:59.354Z,23.30
2024-04-08T08:41:12.759Z,24.50
2024-04-08T08:43:31.807Z,22.50
2024-04-08T08:45:48.940Z,25.40
2024-04-08T08:48:00.899Z,22.80
2024-04-08T08:50:13.109Z,22.60
2024-04-08T08:52:26.037Z,22.60
2024-04-08T08:54:37.621Z,22.60
2024-04-08T08:56:49.364Z,23.50
2024-04-08T08:59:04.060Z,22.70
2024-04-08T09:01:16.779Z,23.10
2024-04-08T09:03:34.558Z,22.10
2024-04-08T09:05:51.611Z,23.00
2024-04-08T09:08:04.223Z,23.40
2024-04-08T09:10:16.131Z,23.70
2024-04-08T09:12:29.033Z,23.10
2024-04-08T09:14:40.451Z,21.70
2024-04-08T09:16:53.533Z,21.60
2024-04-08T09:19:04.811Z,22.40
2024-04-08T09:21:16.431Z,20.80
2024-04-08T09:23:31.874Z,20.40
2024-04-08T09:25:43.585Z,20.90
2024-04-08T09:27:55.964Z,22.60
2024-04-08T09:30:08.076Z,20.90
2024-04-08T09:32:22.792Z,20.00
2024-04-08T09:34:34.407Z,19.80
2024-04-08T09:36:46.525Z,21.70
2024-04-08T09:39:02.377Z,20.30
2024-04-08T09:41:18.748Z,20.50
2024-04-08T09:43:32.125Z,20.00
2024-04-08T09:45:44.115Z,22.00
2024-04-08T09:47:55.991Z,19.50
2024-04-08T09:50:13.130Z,19.80
2024-04-08T09:52:26.241Z,20.50
2024-04-08T09:54:37.526Z,20.10
2024-04-08T09:56:59.916Z,19.90
2024-04-08T09:59:19.032Z,18.40
2024-04-08T10:01:30.704Z,20.50
2024-04-08T10:03:49.468Z,19.60
2024-04-08T10:06:01.306Z,19.60
2024-04-08T10:08:13.960Z,20.20
2024-04-08T10:10:27.751Z,18.50
2024-04-08T10:12:41.533Z,19.00
2024-04-08T10:14:52.854Z,17.70
2024-04-08T10:17:04.602Z,19.70
2024-04-08T10:19:15.878Z,18.50
2024-04-08T10:21:28.293Z,16.60
2024-04-08T10:26:00.117Z,17.10
2024-04-08T10:28:16.450Z,16.70
2024-04-08T10:30:28.345Z,14.50
2024-04-08T10:32:39.577Z,14.50
2024-04-08T10:34:54.805Z,12.90
2024-04-08T10:37:06.315Z,12.30
2024-04-08T10:39:18.206Z,12.10
2024-04-08T10:41:30.060Z,12.60
2024-04-08T10:43:41.753Z,12.40
2024-04-08T10:45:55.990Z,13.00
2024-04-08T10:48:14.779Z,11.30
2024-04-08T10:50:31.193Z,11.40
2024-04-08T10:52:43.754Z,11.40
2024-04-08T10:54:55.441Z,10.20
2024-04-08T10:57:06.833Z,11.00
2024-04-08T10:59:18.307Z,11.10
2024-04-08T11:01:29.992Z,10.50
2024-04-08T11:03:41.684Z,11.60
2024-04-08T11:05:53.648Z,10.60
2024-04-08T11:08:05.949Z,10.80
2024-04-08T11:10:18.772Z,10.80
2024-04-08T11:12:30.383Z,9.60
2024-04-08T11:14:46.848Z,9.40
2024-04-08T11:17:01.160Z,9.10
2024-04-08T11:19:13.538Z,8.90
2024-04-08T11:21:25.771Z,8.80
2024-04-08T11:23:42.521Z,9.40
2024-04-08T11:25:54.470Z,8.80
2024-04-08T11:28:06.423Z,9.30
2024-04-08T11:30:19.206Z,8.50
2024-04-08T11:32:31.194Z,8.40
2024-04-08T11:34:43.841Z,8.40
2024-04-08T11:36:55.462Z,8.50
2024-04-08T11:39:06.861Z,9.00
2024-04-08T11:41:18.595Z,10.00
2024-04-08T11:43:30.077Z,8.90
2024-04-08T11:45:43.636Z,8.30
2024-04-08T11:47:55.534Z,8.50
2024-04-08T11:50:08.774Z,8.10
2024-04-08T11:52:20.293Z,8.00
2024-04-08T11:54:42.173Z,8.00
2024-04-08T11:57:01.455Z,8.40
2024-04-08T11:59:12.996Z,7.80
2024-04-08T12:01:24.800Z,8.40
2024-04-08T12:03:36.566Z,7.80
2024-04-08T12:05:49.127Z,8.90
2024-04-08T12:08:02.114Z,7.80
2024-04-08T12:10:14.289Z,7.20
2024-04-08T12:12:25.454Z,8.00
2024-04-08T12:14:37.199Z,7.20
2024-04-08T12:16:48.537Z,6.70
2024-04-08T12:19:02.083Z,7.00
2024-04-08T12:21:13.907Z,6.90
2024-04-08T12:23:25.644Z,7.50
2024-04-08T12:25:37.312Z,7.50
2024-04-08T12:27:49.225Z,7.00
2024-04-08T12:30:01.275Z,6.90
2024-04-08T12:32:14.242Z,7.70
2024-04-08T12:34:27.632Z,6.90
2024-04-08T12:36:39.153Z,6.60
2024-04-08T12:38:52.088Z,6.90
2024-04-08T12:41:04.821Z,6.70
2024-04-08T12:43:16.275Z,7.60
2024-04-08T12:45:27.779Z,6.30
2024-04-08T12:47:40.044Z,5.80
2024-04-08T12:49:51.632Z,6.60
2024-04-08T12:52:03.427Z,6.30
2024-04-08T12:54:14.756Z,5.40
2024-04-08T12:56:26.550Z,5.80
2024-04-08T12:58:39.003Z,6.30
2024-04-08T13:00:50.542Z,5.90
2024-04-08T13:03:02.329Z,5.80
2024-04-08T13:05:14.056Z,5.40
2024-04-08T13:07:26.088Z,5.60
2024-04-08T13:09:38.049Z,6.00
2024-04-08T13:11:53.140Z,6.50
2024-04-08T13:14:06.000Z,6.00
2024-04-08T13:16:17.329Z,5.80
2024-04-08T13:18:29.198Z,5.90
2024-04-08T13:20:41.096Z,5.60
2024-04-08T13:22:52.474Z,17.20
2024-04-08T13:25:04.809Z,6.40
2024-04-08T13:27:16.354Z,4.90
2024-04-08T13:29:27.739Z,5.00
2024-04-08T13:31:41.192Z,4.90
2024-04-08T13:33:54.771Z,4.90
2024-04-08T13:36:11.256Z,5.20
2024-04-08T13:38:23.213Z,5.00
2024-04-08T13:40:34.782Z,4.80
2024-04-08T13:42:46.475Z,4.70
2024-04-08T13:44:58.293Z,4.70
2024-04-08T13:47:10.061Z,5.00
2024-04-08T13:49:21.427Z,5.10
2024-04-08T13:51:32.776Z,5.00
2024-04-08T13:53:44.406Z,4.30
2024-04-08T13:55:58.446Z,4.60
2024-04-08T13:58:10.027Z,4.70
2024-04-08T14:00:21.859Z,4.50
2024-04-08T14:02:34.526Z,4.60
2024-04-08T14:04:46.418Z,4.60
2024-04-08T14:06:57.705Z,4.60
2024-04-08T14:09:09.511Z,4.30
2024-04-08T14:11:21.072Z,4.50
2024-04-08T14:13:32.876Z,4.50
2024-04-08T14:15:45.190Z,4.60
2024-04-08T14:17:56.948Z,4.20
2024-04-08T14:20:08.621Z,4.70
2024-04-08T14:22:22.071Z,4.30
2024-04-08T14:24:33.250Z,4.50
2024-04-08T14:26:44.997Z,4.00
2024-04-08T14:28:56.221Z,4.20
2024-04-08T14:31:07.791Z,3.90
2024-04-08T14:33:20.055Z,4.20
2024-04-08T14:35:31.690Z,4.10
2024-04-08T14:38:00.931Z,4.90
2024-04-08T14:40:18.365Z,4.20
2024-04-08T14:42:30.144Z,4.00
2024-04-08T14:44:47.748Z,4.10
2024-04-08T14:47:03.165Z,3.90
2024-04-08T14:49:14.628Z,4.20
2024-04-08T14:51:33.610Z,4.20
2024-04-08T14:53:50.809Z,4.00
2024-04-08T14:56:02.861Z,3.90
2024-04-08T14:58:14.431Z,3.80
2024-04-08T15:00:26.115Z,4.00
2024-04-08T15:02:38.190Z,3.90
2024-04-08T15:04:50.558Z,3.60
2024-04-08T15:07:03.020Z,3.40
2024-04-08T15:09:15.968Z,3.70
2024-04-08T15:14:56.698Z,4.00
2024-04-08T15:17:09.069Z,3.40
2024-04-08T15:19:20.626Z,3.90
2024-04-08T15:21:33.387Z,3.60
2024-04-08T15:23:44.813Z,3.80
2024-04-08T15:25:56.963Z,3.90
2024-04-08T15:28:09.110Z,3.70
2024-04-08T15:30:20.432Z,5.50
2024-04-08T15:32:32.359Z,3.70
2024-04-08T15:34:45.550Z,3.50
2024-04-08T15:36:57.090Z,3.50
2024-04-08T15:39:08.725Z,3.30
2024-04-08T15:41:21.092Z,3.80
2024-04-08T15:43:32.560Z,3.20
2024-04-08T15:45:44.058Z,3.20
2024-04-08T15:47:56.282Z,3.50
2024-04-08T15:50:08.037Z,3.50
2024-04-08T15:52:19.226Z,3.60
2024-04-08T15:54:31.173Z,3.90
2024-04-08T15:56:42.892Z,3.80
2024-04-08T15:58:56.329Z,3.60
2024-04-08T16:01:08.624Z,4.00
2024-04-08T16:03:19.983Z,3.90
2024-04-08T16:05:32.809Z,3.80
2024-04-08T16:07:44.195Z,3.60
2024-04-08T16:09:55.269Z,3.90
2024-04-08T16:12:07.195Z,3.90
2024-04-08T16:14:18.869Z,4.00
2024-04-08T16:16:31.080Z,3.80
2024-04-08T16:18:42.509Z,4.90
2024-04-08T16:20:58.832Z,4.10
2024-04-08T16:23:21.943Z,4.00
2024-04-08T16:25:44.530Z,4.20
2024-04-08T16:27:56.108Z,4.10
2024-04-08T16:30:08.130Z,4.00
2024-04-08T16:32:23.036Z,4.50
2024-04-08T16:34:34.828Z,4.60
2024-04-08T16:36:46.986Z,3.90
2024-04-08T16:38:58.776Z,4.10
2024-04-08T16:41:11.354Z,3.70
2024-04-08T16:43:24.683Z,3.90
2024-04-08T16:45:36.226Z,3.90
2024-04-08T16:47:47.857Z,4.20
2024-04-08T16:49:59.335Z,4.10
2024-04-08T16:52:11.023Z,4.00
2024-04-08T16:54:22.284Z,4.50
2024-04-08T16:56:33.987Z,4.60
2024-04-08T16:58:54.352Z,4.80
2024-04-08T17:01:06.969Z,4.60
2024-04-08T17:03:19.209Z,4.40
2024-04-08T17:05:30.692Z,4.50
2024-04-08T17:07:46.766Z,4.10
2024-04-08T17:09:59.705Z,4.00
2024-04-08T17:12:13.023Z,4.00
2024-04-08T17:14:25.301Z,4.00
2024-04-08T17:16:36.840Z,4.30
2024-04-08T17:18:48.468Z,4.60
2024-04-08T17:21:02.644Z,4.50
2024-04-08T17:23:14.154Z,4.50
2024-04-08T17:25:25.631Z,4.10
2024-04-08T17:27:37.724Z,4.00
2024-04-08T17:29:49.596Z,4.30
2024-04-08T17:32:02.241Z,4.60
2024-04-08T17:34:19.882Z,3.90
2024-04-08T17:36:31.507Z,3.70
2024-04-08T17:38:42.675Z,3.90
2024-04-08T17:41:01.897Z,4.00
2024-04-08T17:43:13.652Z,3.70
2024-04-08T17:45:26.052Z,3.70
2024-04-08T17:47:39.485Z,3.90
2024-04-08T17:49:51.126Z,5.00
2024-04-08T17:52:06.624Z,4.90
2024-04-08T17:54:19.401Z,5.10
2024-04-08T17:56:33.250Z,4.90
2024-04-08T17:58:45.553Z,4.80
2024-04-08T18:01:08.912Z,4.10
2024-04-08T18:03:21.176Z,4.20
2024-04-08T18:05:34.104Z,4.10
2024-04-08T18:07:45.746Z,4.10
2024-04-08T18:09:57.328Z,4.10
2024-04-08T18:12:09.085Z,4.00
2024-04-08T18:14:21.246Z,4.20
2024-04-08T18:16:34.097Z,4.30
2024-04-08T18:18:50.514Z,4.50
2024-04-08T18:21:04.129Z,4.90
2024-04-08T18:23:18.717Z,4.60
2024-04-08T18:25:30.308Z,4.70
2024-04-08T18:27:42.517Z,5.30
2024-04-08T18:29:54.049Z,5.00
2024-04-08T18:32:06.048Z,5.30
2024-04-08T18:34:17.593Z,5.60
2024-04-08T18:36:30.899Z,5.30
2024-04-08T18:38:44.838Z,5.60
2024-04-08T18:40:56.928Z,5.60
2024-04-08T18:43:08.728Z,5.30
2024-04-08T18:45:19.949Z,5.80
2024-04-08T18:47:31.991Z,5.50
2024-04-08T18:49:46.644Z,6.30
2024-04-08T18:51:59.872Z,6.40
2024-04-08T18:54:11.707Z,6.30
2024-04-08T18:56:23.478Z,6.20
2024-04-08T18:58:35.035Z,6.30
2024-04-08T19:00:47.325Z,5.90
2024-04-08T19:02:58.977Z,6.40
2024-04-08T19:05:11.583Z,6.00
2024-04-08T19:07:23.446Z,6.10
2024-04-08T19:09:35.174Z,6.30
2024-04-08T19:11:53.027Z,6.20
2024-04-08T19:14:06.484Z,6.20
2024-04-08T19:16:17.754Z,7.20
2024-04-08T19:18:29.963Z,6.50
2024-04-08T19:20:41.436Z,6.00
2024-04-08T19:22:54.890Z,6.60
2024-04-08T19:25:09.522Z,6.80
2024-04-08T19:27:25.330Z,6.30
2024-04-08T19:29:39.110Z,6.20
2024-04-08T19:31:57.439Z,6.10
2024-04-08T19:34:12.561Z,6.10
2024-04-08T19:36:28.024Z,5.80
2024-04-08T19:38:42.343Z,6.40
2024-04-08T19:41:01.942Z,6.40
2024-04-08T19:43:15.588Z,6.60
2024-04-08T19:45:37.697Z,6.20
2024-04-08T19:47:53.978Z,6.10
2024-04-08T19:50:08.703Z,5.70
2024-04-08T19:52:22.509Z,6.00
2024-04-08T19:54:36.155Z,5.90
2024-04-08T19:56:51.355Z,6.60
2024-04-08T19:59:05.589Z,5.80
2024-04-08T20:01:19.538Z,6.20
2024-04-08T20:03:33.359Z,6.20
2024-04-08T20:05:56.928Z,5.80
2024-04-08T20:08:12.444Z,6.30
2024-04-08T20:10:27.466Z,6.00
2024-04-08T20:12:42.630Z,6.40
2024-04-08T20:15:01.288Z,6.60
2024-04-08T20:17:15.024Z,6.60
2024-04-08T20:19:31.021Z,6.20
2024-04-08T20:21:46.328Z,6.40
2024-04-08T20:24:01.383Z,5.90
2024-04-08T20:26:15.576Z,6.50
2024-04-08T20:28:30.272Z,6.60
2024-04-08T20:30:54.860Z,7.20
2024-04-08T20:33:09.437Z,6.80
2024-04-08T20:35:22.236Z,6.60
2024-04-08T20:37:35.519Z,6.70
2024-04-08T20:39:50.955Z,6.70
2024-04-08T20:42:05.123Z,7.30
2024-04-08T20:44:19.228Z,7.10
2024-04-08T20:46:33.020Z,7.10
2024-04-08T20:48:47.460Z,7.00
2024-04-08T20:51:03.360Z,7.30
2024-04-08T20:53:16.286Z,7.30
2024-04-08T20:55:31.190Z,7.20
2024-04-08T20:57:45.278Z,7.80
2024-04-08T20:59:58.619Z,7.70
2024-04-08T21:02:12.643Z,7.50
2024-04-08T21:04:26.398Z,7.70
2024-04-08T21:06:39.962Z,8.20
2024-04-08T21:08:53.392Z,7.90
2024-04-08T21:11:10.200Z,7.50
2024-04-08T21:13:23.377Z,8.10
2024-04-08T21:15:35.727Z,8.00
2024-04-08T21:17:48.806Z,7.90
2024-04-08T21:20:04.388Z,8.00
2024-04-08T21:22:15.661Z,8.30
2024-04-08T21:24:26.887Z,8.40
2024-04-08T21:26:38.524Z,8.40
2024-04-08T21:28:50.649Z,8.20
2024-04-08T21:31:02.316Z,8.20
2024-04-08T21:33:14.024Z,8.90
2024-04-08T21:35:26.000Z,9.10
2024-04-08T21:37:37.171Z,9.00
2024-04-08T21:39:49.676Z,8.90
2024-04-08T21:42:01.477Z,8.90
2024-04-08T21:44:13.045Z,8.80
2024-04-08T21:46:24.736Z,9.00
2024-04-08T21:48:37.070Z,9.20
2024-04-08T21:50:50.463Z,8.90
2024-04-08T21:53:01.766Z,9.20
2024-04-08T21:55:13.120Z,9.20
2024-04-08T21:57:24.754Z,8.90
2024-04-08T21:59:36.292Z,9.90
2024-04-08T22:01:48.081Z,9.20
2024-04-08T22:04:03.124Z,9.70
2024-04-08T22:06:20.970Z,8.60
2024-04-08T22:08:33.326Z,9.60
2024-04-08T22:10:45.649Z,9.30
2024-04-08T22:12:58.190Z,9.30
2024-04-08T22:15:09.529Z,10.50
2024-04-08T22:17:25.565Z,9.50
2024-04-08T22:19:37.058Z,9.60
2024-04-08T22:21:48.628Z,10.40
2024-04-08T22:24:00.360Z,10.90
2024-04-08T22:26:11.807Z,10.40
2024-04-08T22:28:23.591Z,10.60
2024-04-08T22:30:36.277Z,10.70
2024-04-08T22:32:48.183Z,10.70
2024-04-08T22:35:01.824Z,11.70
2024-04-08T22:37:13.512Z,11.70
2024-04-08T22:39:24.789Z,11.30
2024-04-08T22:41:44.343Z,10.70
2024-04-08T22:43:59.846Z,10.90
2024-04-08T22:46:11.234Z,10.60
2024-04-08T22:48:22.932Z,11.40
2024-04-08T22:50:34.391Z,12.10
2024-04-08T22:52:46.078Z,11.30
2024-04-08T22:54:57.671Z,11.50
2024-04-08T22:57:09.502Z,11.80
2024-04-08T22:59:22.410Z,11.70
2024-04-08T23:01:33.806Z,11.40
2024-04-08T23:03:46.092Z,11.50
2024-04-08T23:05:57.969Z,11.30
2024-04-08T23:08:09.544Z,11.00
2024-04-08T23:10:21.728Z,11.80
2024-04-08T23:12:33.317Z,12.10
2024-04-08T23:14:45.207Z,19.30
2024-04-08T23:16:56.456Z,22.10
2024-04-08T23:19:08.253Z,15.70
2024-04-08T23:21:20.462Z,12.60
2024-04-08T23:23:31.955Z,12.00
2024-04-08T23:25:43.445Z,11.60
2024-04-08T23:27:54.922Z,11.50
2024-04-08T23:30:07.887Z,11.90
2024-04-08T23:32:19.580Z,11.90
2024-04-08T23:34:31.325Z,12.30
2024-04-08T23:36:43.441Z,12.30
2024-04-08T23:38:55.107Z,12.50
2024-04-08T23:41:07.097Z,12.00
2024-04-08T23:43:18.576Z,12.60
2024-04-08T23:45:31.230Z,12.00
2024-04-08T23:47:42.779Z,12.70
2024-04-08T23:49:54.157Z,12.90
2024-04-08T23:52:06.042Z,13.20
2024-04-08T23:54:17.916Z,12.60
2024-04-08T23:56:29.418Z,12.80
2024-04-08T23:58:40.913Z,13.10
